Time,TemperatureF,DewpointF,PressureIn,WindDirection,WindDirectionDegrees,WindSpeedMPH,WindSpeedGustMPH,Humidity,HourlyPrecipIn,Conditions,Clouds,dailyrainin,SoftwareType,DateUTC
2013-09-25 00:00:00,64.9,53.3,29.92,North,0,0.0,0.0,66,-99.99,,,0.00,wxRedirect v1.1,2013-09-25 05:00:00,
2013-09-25 00:03:00,64.2,52.6,29.92,North,0,0.0,0.0,66,-99.99,,,0.00,wxRedirect v1.1,2013-09-25 05:03:00,
2013-09-25 00:06:00,64.8,53.1,29.92,North,0,0.0,0.0,66,-99.99,,,0.00,wxRedirect v1.1,2013-09-25 05:06:00,
2013-09-25 00:07:00,64.2,53.0,29.92,North,0,0.0,0.0,67,-99.99,,,0.00,wxRedirect v1.1,2013-09-25 05:07:00,
2013-09-25 00:09:00,64.2,53.0,29.92,North,0,0.0,0.0,67,-99.99,,,0.00,wxRedirect v1.1,2013-09-25 05:09:00,
2013-09-25 00:11:00,64.0,52.8,29.92,North,0,0.0,0.0,67,-99.99,,,0.00,wxRedirect v1.1,2013-09-25 05:11:00,
2013-09-25 00:12:00,64.4,52.8,29.92,North,0,0.0,0.0,66,-99.99,,,0.00,wxRedirect v1.1,2013-09-25 05:12:00,
2013-09-25 00:17:00,64.2,52.6,29.92,North,0,0.0,0.0,66,-99.99,,,0.00,wxRedirect v1.1,2013-09-25 05:17:00,
2013-09-25 00:18:00,64.0,52.8,29.93,North,0,0.0,0.0,67,-99.99,,,0.00,wxRedirect v1.1,2013-09-25 05:18:00,
2013-09-25 00:23:00,64.0,52.8,29.92,North,0,0.0,0.0,67,-99.99,,,0.00,wxRedirect v1.1,2013-09-25 05:23:00,
2013-09-25 00:26:00,63.7,52.5,29.92,North,0,0.0,0.0,67,-99.99,,,0.00,wxRedirect v1.1,2013-09-25 05:26:00,
2013-09-25 00:27:00,63.7,52.5,29.93,North,0,0.0,0.0,67,-99.99,,,0.00,wxRedirect v1.1,2013-09-25 05:27:00,
2013-09-25 00:28:00,64.0,52.8,29.92,North,0,0.0,0.0,67,-99.99,,,0.00,wxRedirect v1.1,2013-09-25 05:28:00,
2013-09-25 00:34:00,64.0,52.8,29.93,North,0,0.0,0.0,67,-99.99,,,0.00,wxRedirect v1.1,2013-09-25 05:34:00,
2013-09-25 00:40:00,63.7,52.5,29.93,North,0,0.0,0.0,67,-99.99,,,0.00,wxRedirect v1.1,2013-09-25 05:40:00,
2013-09-25 00:45:00,63.5,52.3,29.92,North,0,0.0,0.0,67,-99.99,,,0.00,wxRedirect v1.1,2013-09-25 05:45:00,
2013-09-25 00:49:00,63.1,52.4,29.93,North,0,0.0,0.0,68,-99.99,,,0.00,wxRedirect v1.1,2013-09-25 05:49:00,
2013-09-25 00:50:00,63.3,52.1,29.93,North,0,0.0,0.0,67,-99.99,,,0.00,wxRedirect v1.1,2013-09-25 05:50:00,
2013-09-25 00:56:00,63.3,52.6,29.93,North,0,0.0,0.0,68,-99.99,,,0.00,wxRedirect v1.1,2013-09-25 05:56:00,
2013-09-25 01:00:00,62.8,52.0,29.92,North,0,0.0,0.0,68,-99.99,,,0.00,wxRedirect v1.1,2013-09-25 06:00:00,
2013-09-25 01:03:00,63.1,52.4,29.93,North,0,0.0,0.0,68,-99.99,,,0.00,wxRedirect v1.1,2013-09-25 06:03:00,
2013-09-25 01:05:00,62.8,52.0,29.92,North,0,0.0,0.0,68,-99.99,,,0.00,wxRedirect v1.1,2013-09-25 06:05:00,
2013-09-25 01:08:00,63.0,52.2,29.93,North,0,0.0,0.0,68,-99.99,,,0.00,wxRedirect v1.1,2013-09-25 06:08:00,
2013-09-25 01:13:00,62.8,52.0,29.93,North,0,0.0,0.0,68,-99.99,,,0.00,wxRedirect v1.1,2013-09-25 06:13:00,
2013-09-25 01:19:00,62.6,51.9,29.92,North,0,0.0,0.0,68,-99.99,,,0.00,wxRedirect v1.1,2013-09-25 06:19:00,
2013-09-25 01:25:00,62.4,51.7,29.92,North,0,0.0,0.0,68,-99.99,,,0.00,wxRedirect v1.1,2013-09-25 06:25:00,
2013-09-25 01:28:00,62.2,51.5,29.91,North,0,0.0,0.0,68,-99.99,,,0.00,wxRedirect v1.1,2013-09-25 06:28:00,
2013-09-25 01:29:00,62.2,51.5,29.91,North,0,0.0,0.0,68,-99.99,,,0.00,wxRedirect v1.1,2013-09-25 06:29:00,
2013-09-25 01:30:00,62.4,51.7,29.92,North,0,0.0,0.0,68,-99.99,,,0.00,wxRedirect v1.1,2013-09-25 06:30:00,
2013-09-25 01:35:00,62.4,51.7,29.92,North,-999,-999.0,-999.0,68,-99.99,,,0.00,wxRedirect v1.1,2013-09-25 06:35:00,
2013-09-25 01:41:00,62.2,51.5,29.92,North,0,0.0,0.0,68,-99.99,,,0.00,wxRedirect v1.1,2013-09-25 06:41:00,
2013-09-25 01:46:00,62.2,51.5,29.92,North,0,0.0,0.0,68,-99.99,,,0.00,wxRedirect v1.1,2013-09-25 06:46:00,
2013-09-25 01:51:00,62.1,51.8,29.92,North,0,0.0,0.0,69,-99.99,,,0.00,wxRedirect v1.1,2013-09-25 06:51:00,
2013-09-25 01:57:00,61.9,51.6,29.92,North,0,0.0,0.0,69,-99.99,,,0.00,wxRedirect v1.1,2013-09-25 06:57:00,
2013-09-25 01:58:00,61.7,51.5,29.92,North,0,0.0,0.0,69,-99.99,,,0.00,wxRedirect v1.1,2013-09-25 06:58:00,
2013-09-25 02:00:00,61.7,51.5,29.92,North,0,0.0,0.0,69,-99.99,,,0.00,wxRedirect v1.1,2013-09-25 07:00:00,
2013-09-25 02:02:00,61.9,51.6,29.92,North,0,0.0,0.0,69,-99.99,,,0.00,wxRedirect v1.1,2013-09-25 07:02:00,
2013-09-25 02:05:00,61.7,51.5,29.92,North,0,0.0,0.0,69,-99.99,,,0.00,wxRedirect v1.1,2013-09-25 07:05:00,
2013-09-25 02:07:00,61.9,51.6,29.92,North,0,0.0,0.0,69,-99.99,,,0.00,wxRedirect v1.1,2013-09-25 07:07:00,
2013-09-25 02:13:00,61.7,51.5,29.92,North,0,0.0,0.0,69,-99.99,,,0.00,wxRedirect v1.1,2013-09-25 07:13:00,
2013-09-25 02:14:00,61.5,51.3,29.91,North,0,0.0,0.0,69,-99.99,,,0.00,wxRedirect v1.1,2013-09-25 07:14:00,
2013-09-25 02:16:00,61.5,51.3,29.91,North,0,0.0,0.0,69,-99.99,,,0.00,wxRedirect v1.1,2013-09-25 07:16:00,
2013-09-25 02:17:00,61.5,51.3,29.92,North,0,0.0,0.0,69,-99.99,,,0.00,wxRedirect v1.1,2013-09-25 07:17:00,
2013-09-25 02:18:00,61.7,51.5,29.91,North,0,0.0,0.0,69,-99.99,,,0.00,wxRedirect v1.1,2013-09-25 07:18:00,
2013-09-25 02:23:00,61.5,51.3,29.91,North,0,0.0,0.0,69,-99.99,,,0.00,wxRedirect v1.1,2013-09-25 07:23:00,
2013-09-25 02:29:00,61.5,51.3,29.91,North,0,0.0,0.0,69,-99.99,,,0.00,wxRedirect v1.1,2013-09-25 07:29:00,
2013-09-25 02:34:00,61.5,51.3,29.91,North,0,0.0,0.0,69,-99.99,,,0.00,wxRedirect v1.1,2013-09-25 07:34:00,
2013-09-25 02:35:00,61.2,51.4,29.92,North,0,0.0,0.0,70,-99.99,,,0.00,wxRedirect v1.1,2013-09-25 07:35:00,
2013-09-25 02:38:00,61.2,51.4,29.91,North,0,0.0,0.0,70,-99.99,,,0.00,wxRedirect v1.1,2013-09-25 07:38:00,
2013-09-25 02:39:00,61.5,51.3,29.92,North,0,0.0,0.0,69,-99.99,,,0.00,wxRedirect v1.1,2013-09-25 07:39:00,
2013-09-25 02:43:00,61.0,51.2,29.92,North,0,0.0,0.0,70,-99.99,,,0.00,wxRedirect v1.1,2013-09-25 07:43:00,
2013-09-25 02:44:00,61.0,51.2,29.92,North,0,0.0,0.0,70,-99.99,,,0.00,wxRedirect v1.1,2013-09-25 07:44:00,
2013-09-25 02:45:00,61.3,51.6,29.92,North,0,0.0,0.0,70,-99.99,,,0.00,wxRedirect v1.1,2013-09-25 07:45:00,
2013-09-25 02:49:00,61.0,51.2,29.91,North,0,0.0,0.0,70,-99.99,,,0.00,wxRedirect v1.1,2013-09-25 07:49:00,
2013-09-25 02:50:00,61.2,51.4,29.91,North,0,0.0,0.0,70,-99.99,,,0.00,wxRedirect v1.1,2013-09-25 07:50:00,
2013-09-25 02:55:00,61.0,51.2,29.91,North,0,0.0,0.0,70,-99.99,,,0.00,wxRedirect v1.1,2013-09-25 07:55:00,
2013-09-25 02:58:00,60.8,51.1,29.91,North,0,0.0,0.0,70,-99.99,,,0.00,wxRedirect v1.1,2013-09-25 07:58:00,
2013-09-25 03:00:00,60.6,50.9,29.91,North,0,0.0,0.0,70,-99.99,,,0.00,wxRedirect v1.1,2013-09-25 08:00:00,
2013-09-25 03:01:00,61.0,51.2,29.92,North,0,0.0,0.0,70,-99.99,,,0.00,wxRedirect v1.1,2013-09-25 08:01:00,
2013-09-25 03:02:00,60.6,50.9,29.91,North,0,0.0,0.0,70,-99.99,,,0.00,wxRedirect v1.1,2013-09-25 08:02:00,
2013-09-25 03:06:00,61.0,51.2,29.91,North,0,0.0,0.0,70,-99.99,,,0.00,wxRedirect v1.1,2013-09-25 08:06:00,
2013-09-25 03:12:00,60.6,50.9,29.91,North,0,0.0,0.0,70,-99.99,,,0.00,wxRedirect v1.1,2013-09-25 08:12:00,
2013-09-25 03:17:00,60.6,50.9,29.91,North,0,0.0,0.0,70,-99.99,,,0.00,wxRedirect v1.1,2013-09-25 08:17:00,
2013-09-25 03:23:00,60.6,51.3,29.91,North,0,0.0,0.0,71,-99.99,,,0.00,wxRedirect v1.1,2013-09-25 08:23:00,
2013-09-25 03:28:00,60.4,51.1,29.91,North,0,0.0,0.0,71,-99.99,,,0.00,wxRedirect v1.1,2013-09-25 08:28:00,
2013-09-25 03:33:00,60.4,51.1,29.90,North,0,0.0,0.0,71,-99.99,,,0.00,wxRedirect v1.1,2013-09-25 08:33:00,
2013-09-25 03:39:00,60.1,50.7,29.91,North,0,0.0,0.0,71,-99.99,,,0.00,wxRedirect v1.1,2013-09-25 08:39:00,
2013-09-25 03:44:00,60.1,50.7,29.91,North,0,0.0,0.0,71,-99.99,,,0.00,wxRedirect v1.1,2013-09-25 08:44:00,
2013-09-25 03:49:00,59.9,50.9,29.91,North,0,0.0,0.0,72,-99.99,,,0.00,wxRedirect v1.1,2013-09-25 08:49:00,
2013-09-25 03:55:00,59.9,50.9,29.91,North,0,0.0,0.0,72,-99.99,,,0.00,wxRedirect v1.1,2013-09-25 08:55:00,
2013-09-25 04:00:00,59.7,50.7,29.90,North,0,0.0,0.0,72,-99.99,,,0.00,wxRedirect v1.1,2013-09-25 09:00:00,
2013-09-25 04:05:00,59.5,50.5,29.90,North,0,0.0,0.0,72,-99.99,,,0.00,wxRedirect v1.1,2013-09-25 09:05:00,
2013-09-25 04:11:00,59.4,50.4,29.91,North,0,0.0,0.0,72,-99.99,,,0.00,wxRedirect v1.1,2013-09-25 09:11:00,
2013-09-25 04:16:00,59.4,50.4,29.90,North,0,0.0,0.0,72,-99.99,,,0.00,wxRedirect v1.1,2013-09-25 09:16:00,
2013-09-25 04:21:00,59.2,50.2,29.91,North,0,0.0,0.0,72,-99.99,,,0.00,wxRedirect v1.1,2013-09-25 09:21:00,
2013-09-25 04:27:00,58.8,49.8,29.90,North,0,0.0,0.0,72,-99.99,,,0.00,wxRedirect v1.1,2013-09-25 09:27:00,
2013-09-25 04:32:00,58.8,49.8,29.90,NNE,22,0.0,0.0,72,-99.99,,,0.00,wxRedirect v1.1,2013-09-25 09:32:00,
2013-09-25 04:37:00,58.8,50.2,29.89,NNE,22,0.0,0.0,73,-99.99,,,0.00,wxRedirect v1.1,2013-09-25 09:37:00,
2013-09-25 04:43:00,58.8,50.5,29.89,NE,45,0.0,0.0,74,-99.99,,,0.00,wxRedirect v1.1,2013-09-25 09:43:00,
2013-09-25 04:48:00,58.8,50.5,29.89,NE,45,0.0,0.0,74,-99.99,,,0.00,wxRedirect v1.1,2013-09-25 09:48:00,
2013-09-25 04:53:00,58.8,50.5,29.89,NE,45,0.0,0.0,74,-99.99,,,0.00,wxRedirect v1.1,2013-09-25 09:53:00,
2013-09-25 04:59:00,58.8,50.5,29.89,NE,45,0.0,0.0,74,-99.99,,,0.00,wxRedirect v1.1,2013-09-25 09:59:00,
2013-09-25 05:04:00,58.8,50.5,29.90,NE,45,0.0,0.0,74,-99.99,,,0.00,wxRedirect v1.1,2013-09-25 10:04:00,
2013-09-25 05:09:00,58.8,50.9,29.90,NE,45,0.0,0.0,75,-99.99,,,0.00,wxRedirect v1.1,2013-09-25 10:09:00,
2013-09-25 05:15:00,58.8,50.9,29.91,NE,45,0.0,0.0,75,-99.99,,,0.00,wxRedirect v1.1,2013-09-25 10:15:00,
2013-09-25 05:20:00,58.8,50.9,29.91,NE,45,0.0,0.0,75,-99.99,,,0.00,wxRedirect v1.1,2013-09-25 10:20:00,
2013-09-25 05:25:00,58.6,50.7,29.91,NE,45,0.0,0.0,75,-99.99,,,0.00,wxRedirect v1.1,2013-09-25 10:25:00,
2013-09-25 05:31:00,58.6,50.7,29.91,NE,45,0.0,0.0,75,-99.99,,,0.00,wxRedirect v1.1,2013-09-25 10:31:00,
2013-09-25 05:36:00,58.5,50.5,29.91,NE,45,0.0,0.0,75,-99.99,,,0.00,wxRedirect v1.1,2013-09-25 10:36:00,
2013-09-25 05:41:00,58.5,50.5,29.92,NE,45,0.0,0.0,75,-99.99,,,0.00,wxRedirect v1.1,2013-09-25 10:41:00,
2013-09-25 05:47:00,58.3,50.0,29.91,NE,45,0.0,0.0,74,-99.99,,,0.00,wxRedirect v1.1,2013-09-25 10:47:00,
2013-09-25 05:52:00,58.3,50.0,29.91,NE,45,0.0,0.0,74,-99.99,,,0.00,wxRedirect v1.1,2013-09-25 10:52:00,
2013-09-25 05:57:00,58.1,49.8,29.92,NE,45,0.0,0.0,74,-99.99,,,0.00,wxRedirect v1.1,2013-09-25 10:57:00,
2013-09-25 06:03:00,57.9,49.6,29.92,NE,45,0.0,0.0,74,-99.99,,,0.00,wxRedirect v1.1,2013-09-25 11:03:00,
2013-09-25 06:08:00,57.9,49.6,29.92,NE,45,0.0,0.0,74,-99.99,,,0.00,wxRedirect v1.1,2013-09-25 11:08:00,
2013-09-25 06:13:00,57.7,49.5,29.92,NE,45,0.0,0.0,74,-99.99,,,0.00,wxRedirect v1.1,2013-09-25 11:13:00,
2013-09-25 06:19:00,57.7,49.8,29.92,NE,45,0.0,0.0,75,-99.99,,,0.00,wxRedirect v1.1,2013-09-25 11:19:00,
2013-09-25 06:24:00,57.6,49.6,29.92,NE,45,0.0,0.0,75,-99.99,,,0.00,wxRedirect v1.1,2013-09-25 11:24:00,
2013-09-25 06:29:00,57.6,49.6,29.92,NE,45,0.0,0.0,75,-99.99,,,0.00,wxRedirect v1.1,2013-09-25 11:29:00,
2013-09-25 06:35:00,57.4,49.5,29.92,NE,45,0.0,0.0,75,-99.99,,,0.00,wxRedirect v1.1,2013-09-25 11:35:00,
2013-09-25 06:40:00,57.4,49.5,29.92,NE,45,0.0,0.0,75,-99.99,,,0.00,wxRedirect v1.1,2013-09-25 11:40:00,
2013-09-25 06:45:00,57.4,49.5,29.93,NE,45,0.0,0.0,75,-99.99,,,0.00,wxRedirect v1.1,2013-09-25 11:45:00,
2013-09-25 06:51:00,57.0,49.1,29.92,NE,45,0.0,0.0,75,-99.99,,,0.00,wxRedirect v1.1,2013-09-25 11:51:00,
2013-09-25 06:56:00,57.0,49.1,29.92,NE,45,0.0,0.0,75,-99.99,,,0.00,wxRedirect v1.1,2013-09-25 11:56:00,
2013-09-25 07:01:00,57.0,49.1,29.91,NE,45,0.0,0.0,75,-99.99,,,0.00,wxRedirect v1.1,2013-09-25 12:01:00,
2013-09-25 07:07:00,57.0,49.1,29.91,NE,45,0.0,0.0,75,-99.99,,,0.00,wxRedirect v1.1,2013-09-25 12:07:00,
2013-09-25 07:12:00,56.8,48.9,29.91,NE,45,0.0,0.0,75,-99.99,,,0.00,wxRedirect v1.1,2013-09-25 12:12:00,
2013-09-25 07:14:00,56.8,49.3,29.93,NE,45,0.0,0.0,76,-99.99,,,0.00,wxRedirect v1.1,2013-09-25 12:14:00,
2013-09-25 07:16:00,56.8,49.3,29.93,NE,45,0.0,0.0,76,-99.99,,,0.00,wxRedirect v1.1,2013-09-25 12:16:00,
2013-09-25 07:17:00,56.8,48.9,29.92,NE,45,0.0,0.0,75,-99.99,,,0.00,wxRedirect v1.1,2013-09-25 12:17:00,
2013-09-25 07:18:00,56.8,49.3,29.93,NE,45,0.0,0.0,76,-99.99,,,0.00,wxRedirect v1.1,2013-09-25 12:18:00,
2013-09-25 07:19:00,56.8,49.3,29.93,NE,45,0.0,0.0,76,-99.99,,,0.00,wxRedirect v1.1,2013-09-25 12:19:00,
2013-09-25 07:22:00,56.7,49.1,29.93,NE,45,0.0,0.0,76,-99.99,,,0.00,wxRedirect v1.1,2013-09-25 12:22:00,
2013-09-25 07:23:00,56.8,49.3,29.93,NE,45,0.0,0.0,76,-99.99,,,0.00,wxRedirect v1.1,2013-09-25 12:23:00,
2013-09-25 07:24:00,56.7,49.1,29.93,NE,45,0.0,0.0,76,-99.99,,,0.00,wxRedirect v1.1,2013-09-25 12:24:00,
2013-09-25 07:25:00,56.7,49.1,29.93,NE,45,0.0,0.0,76,-99.99,,,0.00,wxRedirect v1.1,2013-09-25 12:25:00,
2013-09-25 07:28:00,56.8,49.3,29.93,NE,45,0.0,0.0,76,-99.99,,,0.00,wxRedirect v1.1,2013-09-25 12:28:00,
2013-09-25 07:31:00,56.5,48.9,29.94,NE,45,0.0,0.0,76,-99.99,,,0.00,wxRedirect v1.1,2013-09-25 12:31:00,
2013-09-25 07:33:00,56.8,49.3,29.93,NE,45,0.0,0.0,76,-99.99,,,0.00,wxRedirect v1.1,2013-09-25 12:33:00,
2013-09-25 07:34:00,56.5,48.9,29.94,NE,45,0.0,0.0,76,-99.99,,,0.00,wxRedirect v1.1,2013-09-25 12:34:00,
2013-09-25 07:35:00,56.7,49.1,29.94,NE,45,0.0,0.0,76,-99.99,,,0.00,wxRedirect v1.1,2013-09-25 12:35:00,
2013-09-25 07:37:00,56.5,48.9,29.94,NE,45,0.0,0.0,76,-99.99,,,0.00,wxRedirect v1.1,2013-09-25 12:37:00,
2013-09-25 07:39:00,56.5,48.9,29.93,NE,45,0.0,0.0,76,-99.99,,,0.00,wxRedirect v1.1,2013-09-25 12:39:00,
2013-09-25 07:40:00,56.7,49.1,29.94,NE,45,0.0,0.0,76,-99.99,,,0.00,wxRedirect v1.1,2013-09-25 12:40:00,
2013-09-25 07:43:00,56.8,49.3,29.94,NE,45,0.0,0.0,76,-99.99,,,0.00,wxRedirect v1.1,2013-09-25 12:43:00,
2013-09-25 07:44:00,56.7,49.1,29.94,NE,45,0.0,0.0,76,-99.99,,,0.00,wxRedirect v1.1,2013-09-25 12:44:00,
2013-09-25 07:45:00,56.5,48.9,29.94,NE,45,0.0,0.0,76,-99.99,,,0.00,wxRedirect v1.1,2013-09-25 12:45:00,
2013-09-25 07:46:00,56.8,49.3,29.95,NE,45,0.0,0.0,76,-99.99,,,0.00,wxRedirect v1.1,2013-09-25 12:46:00,
2013-09-25 07:51:00,56.7,49.1,29.94,NE,45,0.0,0.0,76,-99.99,,,0.00,wxRedirect v1.1,2013-09-25 12:51:00,
2013-09-25 07:58:00,56.7,49.1,29.94,NE,45,0.0,0.0,76,-99.99,,,0.00,wxRedirect v1.1,2013-09-25 12:58:00,
2013-09-25 08:03:00,56.8,49.3,29.94,NE,45,0.0,0.0,76,-99.99,,,0.00,wxRedirect v1.1,2013-09-25 13:03:00,
2013-09-25 08:09:00,56.8,49.3,29.94,NE,45,0.0,0.0,76,-99.99,,,0.00,wxRedirect v1.1,2013-09-25 13:09:00,
2013-09-25 08:14:00,57.0,49.8,29.94,NE,45,0.0,0.0,77,-99.99,,,0.00,wxRedirect v1.1,2013-09-25 13:14:00,
2013-09-25 08:19:00,57.0,49.8,29.94,NE,45,0.0,0.0,77,-99.99,,,0.00,wxRedirect v1.1,2013-09-25 13:19:00,
2013-09-25 08:25:00,57.4,50.2,29.94,NE,45,0.0,0.0,77,-99.99,,,0.00,wxRedirect v1.1,2013-09-25 13:25:00,
2013-09-25 08:30:00,57.6,50.7,29.94,NE,45,0.0,0.0,78,-99.99,,,0.00,wxRedirect v1.1,2013-09-25 13:30:00,
2013-09-25 08:35:00,57.9,51.1,29.94,NE,45,0.0,0.0,78,-99.99,,,0.00,wxRedirect v1.1,2013-09-25 13:35:00,
2013-09-25 08:41:00,58.6,52.2,29.94,NE,45,0.0,0.0,79,-99.99,,,0.00,wxRedirect v1.1,2013-09-25 13:41:00,
2013-09-25 08:46:00,59.4,53.2,29.94,NE,45,0.0,0.0,80,-99.99,,,0.00,wxRedirect v1.1,2013-09-25 13:46:00,
2013-09-25 08:51:00,60.6,54.1,29.93,NE,45,0.0,0.0,79,-99.99,,,0.00,wxRedirect v1.1,2013-09-25 13:51:00,
2013-09-25 08:57:00,62.1,55.1,29.93,NE,45,0.0,0.0,78,-99.99,,,0.00,wxRedirect v1.1,2013-09-25 13:57:00,
2013-09-25 09:02:00,63.1,55.8,29.93,NE,45,0.0,0.0,77,-99.99,,,0.00,wxRedirect v1.1,2013-09-25 14:02:00,
2013-09-25 09:07:00,64.2,56.1,29.93,NE,45,0.0,0.0,75,-99.99,,,0.00,wxRedirect v1.1,2013-09-25 14:07:00,
2013-09-25 09:13:00,65.5,56.9,29.93,NE,45,0.0,0.0,74,-99.99,,,0.00,wxRedirect v1.1,2013-09-25 14:13:00,
2013-09-25 09:18:00,66.7,57.4,29.93,NE,45,0.0,0.0,72,-99.99,,,0.00,wxRedirect v1.1,2013-09-25 14:18:00,
2013-09-25 09:23:00,67.6,58.3,29.93,NE,45,0.0,0.0,72,-99.99,,,0.00,wxRedirect v1.1,2013-09-25 14:23:00,
2013-09-25 09:29:00,68.5,58.4,29.93,NE,45,0.0,0.0,70,-99.99,,,0.00,wxRedirect v1.1,2013-09-25 14:29:00,
2013-09-25 09:34:00,69.4,58.4,29.93,NE,45,0.0,0.0,68,-99.99,,,0.00,wxRedirect v1.1,2013-09-25 14:34:00,
2013-09-25 09:39:00,70.0,58.5,29.93,NE,45,0.0,0.0,67,-99.99,,,0.00,wxRedirect v1.1,2013-09-25 14:39:00,
2013-09-25 09:45:00,70.9,59.3,29.94,NE,45,0.0,0.0,67,-99.99,,,0.00,wxRedirect v1.1,2013-09-25 14:45:00,
2013-09-25 09:50:00,71.4,59.9,29.94,NE,45,0.0,0.0,67,-99.99,,,0.00,wxRedirect v1.1,2013-09-25 14:50:00,
2013-09-25 09:55:00,72.1,60.1,29.93,NE,45,0.0,0.0,66,-99.99,,,0.00,wxRedirect v1.1,2013-09-25 14:55:00,
2013-09-25 10:01:00,72.7,60.2,29.93,NE,45,0.0,0.0,65,-99.99,,,0.00,wxRedirect v1.1,2013-09-25 15:01:00,
2013-09-25 10:06:00,73.2,60.3,29.94,ENE,67,0.0,0.0,64,-99.99,,,0.00,wxRedirect v1.1,2013-09-25 15:06:00,
2013-09-25 10:11:00,73.8,60.3,29.94,ESE,112,0.0,0.0,63,-99.99,,,0.00,wxRedirect v1.1,2013-09-25 15:11:00,
2013-09-25 10:17:00,74.3,60.4,29.94,ESE,112,0.0,0.0,62,-99.99,,,0.00,wxRedirect v1.1,2013-09-25 15:17:00,
2013-09-25 10:22:00,74.5,60.2,29.93,ESE,112,0.0,0.0,61,-99.99,,,0.00,wxRedirect v1.1,2013-09-25 15:22:00,
2013-09-25 10:27:00,75.0,60.3,29.93,ESE,112,0.0,0.0,60,-99.99,,,0.00,wxRedirect v1.1,2013-09-25 15:27:00,
2013-09-25 10:33:00,75.4,61.0,29.93,ESE,112,0.0,0.0,61,-99.99,,,0.00,wxRedirect v1.1,2013-09-25 15:33:00,
2013-09-25 10:38:00,75.7,60.9,29.94,ESE,112,0.0,0.0,60,-99.99,,,0.00,wxRedirect v1.1,2013-09-25 15:38:00,
2013-09-25 10:43:00,76.1,60.7,29.94,SSE,157,0.0,0.0,59,-99.99,,,0.00,wxRedirect v1.1,2013-09-25 15:43:00,
2013-09-25 10:49:00,75.9,60.1,29.94,SSE,157,0.0,0.0,59,-99.99,,,0.00,wxRedirect v1.1,2013-09-25 15:49:00,
2013-09-25 10:54:00,76.3,60.9,29.94,South,180,0.0,0.0,59,-99.99,,,0.00,wxRedirect v1.1,2013-09-25 15:54:00,
2013-09-25 10:59:00,76.8,61.4,29.94,South,180,0.0,0.0,59,-99.99,,,0.00,wxRedirect v1.1,2013-09-25 15:59:00,
2013-09-25 11:05:00,77.0,61.1,29.93,South,180,0.0,0.0,58,-99.99,,,0.00,wxRedirect v1.1,2013-09-25 16:05:00,
2013-09-25 11:10:00,77.4,60.9,29.93,East,90,0.0,0.0,57,-99.99,,,0.00,wxRedirect v1.1,2013-09-25 16:10:00,
2013-09-25 11:15:00,77.4,60.9,29.93,SSE,157,0.0,0.0,57,-99.99,,,0.00,wxRedirect v1.1,2013-09-25 16:15:00,
2013-09-25 11:21:00,77.5,60.5,29.93,SSE,157,0.0,0.0,56,-99.99,,,0.00,wxRedirect v1.1,2013-09-25 16:21:00,
2013-09-25 11:26:00,77.7,60.7,29.92,SSE,157,0.0,0.0,55,-99.99,,,0.00,wxRedirect v1.1,2013-09-25 16:26:00,
2013-09-25 11:31:00,78.1,61.1,29.92,SSW,202,0.0,0.0,56,-99.99,,,0.00,wxRedirect v1.1,2013-09-25 16:31:00,
2013-09-25 11:37:00,78.4,60.9,29.92,SSE,157,0.0,0.0,55,-99.99,,,0.00,wxRedirect v1.1,2013-09-25 16:37:00,
2013-09-25 11:42:00,78.4,60.9,29.92,South,180,0.0,0.0,55,-99.99,,,0.00,wxRedirect v1.1,2013-09-25 16:42:00,
2013-09-25 11:47:00,78.4,60.9,29.92,SSE,157,0.0,0.0,55,-99.99,,,0.00,wxRedirect v1.1,2013-09-25 16:47:00,
2013-09-25 11:53:00,78.6,61.1,29.92,SSE,157,0.0,0.0,55,-99.99,,,0.00,wxRedirect v1.1,2013-09-25 16:53:00,
2013-09-25 11:58:00,79.0,61.4,29.92,ESE,112,0.0,0.0,55,-99.99,,,0.00,wxRedirect v1.1,2013-09-25 16:58:00,
2013-09-25 12:03:00,79.2,61.1,29.92,SSE,157,0.0,0.0,54,-99.99,,,0.00,wxRedirect v1.1,2013-09-25 17:03:00,
2013-09-25 12:09:00,79.5,60.9,29.92,SSE,157,0.0,0.0,53,-99.99,,,0.00,wxRedirect v1.1,2013-09-25 17:09:00,
2013-09-25 12:14:00,79.7,61.0,29.91,South,180,0.0,0.0,53,-99.99,,,0.00,wxRedirect v1.1,2013-09-25 17:14:00,
2013-09-25 12:19:00,79.9,61.2,29.91,SW,225,0.0,0.0,53,-99.99,,,0.00,wxRedirect v1.1,2013-09-25 17:19:00,
2013-09-25 12:25:00,80.2,62.0,29.90,SSW,202,0.0,0.0,54,-99.99,,,0.00,wxRedirect v1.1,2013-09-25 17:25:00,
2013-09-25 12:30:00,80.4,61.7,29.90,South,180,0.0,0.0,53,-99.99,,,0.00,wxRedirect v1.1,2013-09-25 17:30:00,
2013-09-25 12:35:00,80.4,61.1,29.90,SSW,202,0.0,0.0,52,-99.99,,,0.00,wxRedirect v1.1,2013-09-25 17:35:00,
2013-09-25 12:41:00,80.4,61.1,29.89,South,180,0.0,0.0,52,-99.99,,,0.00,wxRedirect v1.1,2013-09-25 17:41:00,
2013-09-25 12:46:00,80.6,61.3,29.89,South,180,0.0,0.0,52,-99.99,,,0.00,wxRedirect v1.1,2013-09-25 17:46:00,
2013-09-25 12:51:00,80.6,61.3,29.89,SSE,157,0.0,0.0,52,-99.99,,,0.00,wxRedirect v1.1,2013-09-25 17:51:00,
2013-09-25 12:57:00,80.8,61.5,29.88,SSW,202,0.0,0.0,52,-99.99,,,0.00,wxRedirect v1.1,2013-09-25 17:57:00,
2013-09-25 13:02:00,80.8,61.5,29.88,SSE,157,0.0,0.0,52,-99.99,,,0.00,wxRedirect v1.1,2013-09-25 18:02:00,
2013-09-25 13:07:00,81.0,61.1,29.88,SE,135,0.0,0.0,51,-99.99,,,0.00,wxRedirect v1.1,2013-09-25 18:07:00,
2013-09-25 13:13:00,80.6,60.8,29.88,SSW,202,0.0,0.0,51,-99.99,,,0.00,wxRedirect v1.1,2013-09-25 18:13:00,
2013-09-25 13:18:00,80.4,61.1,29.88,SSE,157,0.0,0.0,52,-99.99,,,0.00,wxRedirect v1.1,2013-09-25 18:18:00,
2013-09-25 13:23:00,80.6,60.8,29.87,SSE,157,0.0,0.0,51,-99.99,,,0.00,wxRedirect v1.1,2013-09-25 18:23:00,
2013-09-25 13:29:00,80.6,61.5,29.87,SSE,157,0.0,0.0,52,-99.99,,,0.00,wxRedirect v1.1,2013-09-25 18:29:00,
2013-09-25 13:34:00,80.8,60.9,29.87,SSE,157,0.0,0.0,51,-99.99,,,0.00,wxRedirect v1.1,2013-09-25 18:34:00,
2013-09-25 13:39:00,80.8,60.4,29.86,South,180,0.0,0.0,50,-99.99,,,0.00,wxRedirect v1.1,2013-09-25 18:39:00,
2013-09-25 13:45:00,80.4,60.6,29.86,SSE,157,0.0,0.0,51,-99.99,,,0.00,wxRedirect v1.1,2013-09-25 18:45:00,
2013-09-25 13:50:00,80.4,60.6,29.86,South,180,0.0,0.0,51,-99.99,,,0.00,wxRedirect v1.1,2013-09-25 18:50:00,
2013-09-25 13:55:00,80.8,60.4,29.86,SSE,157,0.0,0.0,50,-99.99,,,0.00,wxRedirect v1.1,2013-09-25 18:55:00,
2013-09-25 14:01:00,80.4,60.1,29.85,SSE,157,0.0,0.0,50,-99.99,,,0.00,wxRedirect v1.1,2013-09-25 19:01:00,
2013-09-25 14:06:00,80.4,60.1,29.85,SSE,157,0.0,0.0,50,-99.99,,,0.00,wxRedirect v1.1,2013-09-25 19:06:00,
2013-09-25 14:11:00,80.2,59.9,29.85,SE,135,0.0,0.0,50,-99.99,,,0.00,wxRedirect v1.1,2013-09-25 19:11:00,
2013-09-25 14:17:00,80.2,59.9,29.84,SE,135,0.0,0.0,50,-99.99,,,0.00,wxRedirect v1.1,2013-09-25 19:17:00,
2013-09-25 14:22:00,80.1,59.2,29.84,South,180,0.0,0.0,49,-99.99,,,0.00,wxRedirect v1.1,2013-09-25 19:22:00,
2013-09-25 14:27:00,80.1,59.2,29.83,SSE,157,0.0,0.0,49,-99.99,,,0.00,wxRedirect v1.1,2013-09-25 19:27:00,
2013-09-25 14:33:00,79.9,59.0,29.83,SSE,157,0.0,0.0,49,-99.99,,,0.00,wxRedirect v1.1,2013-09-25 19:33:00,
2013-09-25 14:38:00,79.9,58.4,29.83,SSE,157,0.0,0.0,48,-99.99,,,0.00,wxRedirect v1.1,2013-09-25 19:38:00,
2013-09-25 14:43:00,79.9,58.4,29.83,SSE,157,0.0,0.0,48,-99.99,,,0.00,wxRedirect v1.1,2013-09-25 19:43:00,
2013-09-25 14:49:00,80.1,58.6,29.82,SSE,157,0.0,0.0,48,-99.99,,,0.00,wxRedirect v1.1,2013-09-25 19:49:00,
2013-09-25 14:54:00,80.2,59.3,29.82,SSE,157,0.0,0.0,49,-99.99,,,0.00,wxRedirect v1.1,2013-09-25 19:54:00,
2013-09-25 14:59:00,80.2,58.7,29.82,SE,135,0.0,0.0,48,-99.99,,,0.00,wxRedirect v1.1,2013-09-25 19:59:00,
2013-09-25 15:05:00,80.4,59.5,29.81,South,180,0.0,0.0,49,-99.99,,,0.00,wxRedirect v1.1,2013-09-25 20:05:00,
2013-09-25 15:10:00,80.4,58.9,29.81,SSE,157,0.0,0.0,48,-99.99,,,0.00,wxRedirect v1.1,2013-09-25 20:10:00,
2013-09-25 15:15:00,80.6,59.6,29.81,SSE,157,0.0,0.0,49,-99.99,,,0.00,wxRedirect v1.1,2013-09-25 20:15:00,
2013-09-25 15:21:00,80.8,59.8,29.81,SE,135,0.0,0.0,49,-99.99,,,0.00,wxRedirect v1.1,2013-09-25 20:21:00,
2013-09-25 15:26:00,80.8,59.2,29.81,South,180,0.0,0.0,48,-99.99,,,0.00,wxRedirect v1.1,2013-09-25 20:26:00,
2013-09-25 15:31:00,80.8,59.2,29.80,SSE,157,0.0,0.0,48,-99.99,,,0.00,wxRedirect v1.1,2013-09-25 20:31:00,
2013-09-25 15:37:00,80.8,59.2,29.80,SSE,157,0.0,0.0,48,-99.99,,,0.00,wxRedirect v1.1,2013-09-25 20:37:00,
2013-09-25 15:42:00,80.8,59.2,29.80,South,180,0.0,0.0,48,-99.99,,,0.00,wxRedirect v1.1,2013-09-25 20:42:00,
2013-09-25 15:47:00,80.8,58.6,29.80,South,180,0.0,0.0,47,-99.99,,,0.00,wxRedirect v1.1,2013-09-25 20:47:00,
2013-09-25 15:53:00,80.8,59.2,29.80,SSE,157,0.0,0.0,48,-99.99,,,0.00,wxRedirect v1.1,2013-09-25 20:53:00,
2013-09-25 15:58:00,81.0,59.4,29.80,ESE,112,0.0,0.0,48,-99.99,,,0.00,wxRedirect v1.1,2013-09-25 20:58:00,
2013-09-25 16:03:00,81.0,59.4,29.80,SSE,157,0.0,0.0,48,-99.99,,,0.00,wxRedirect v1.1,2013-09-25 21:03:00,
2013-09-25 16:09:00,81.1,59.5,29.80,SSE,157,0.0,0.0,48,-99.99,,,0.00,wxRedirect v1.1,2013-09-25 21:09:00,
2013-09-25 16:14:00,81.1,58.9,29.80,SE,135,0.0,0.0,47,-99.99,,,0.00,wxRedirect v1.1,2013-09-25 21:14:00,
2013-09-25 16:19:00,81.1,58.9,29.79,South,180,0.0,0.0,47,-99.99,,,0.00,wxRedirect v1.1,2013-09-25 21:19:00,
2013-09-25 16:25:00,81.1,58.9,29.79,South,180,0.0,0.0,47,-99.99,,,0.00,wxRedirect v1.1,2013-09-25 21:25:00,
2013-09-25 16:30:00,81.1,58.9,29.79,SSE,157,0.0,0.0,47,-99.99,,,0.00,wxRedirect v1.1,2013-09-25 21:30:00,
2013-09-25 16:35:00,81.1,58.3,29.79,South,180,0.0,0.0,46,-99.99,,,0.00,wxRedirect v1.1,2013-09-25 21:35:00,
2013-09-25 16:41:00,81.1,58.9,29.79,SE,135,0.0,0.0,47,-99.99,,,0.00,wxRedirect v1.1,2013-09-25 21:41:00,
2013-09-25 16:46:00,81.1,58.9,29.78,SSE,157,0.0,0.0,47,-99.99,,,0.00,wxRedirect v1.1,2013-09-25 21:46:00,
2013-09-25 16:49:00,81.7,58.9,29.78,SSE,157,0.0,0.0,46,-99.99,,,0.00,wxRedirect v1.1,2013-09-25 21:49:00,
2013-09-25 16:51:00,81.3,58.5,29.78,South,180,0.0,0.0,46,-99.99,,,0.00,wxRedirect v1.1,2013-09-25 21:51:00,
2013-09-25 16:52:00,81.3,58.6,29.78,SSE,157,0.0,0.0,46,-99.99,,,0.00,wxRedirect v1.1,2013-09-25 21:52:00,
2013-09-25 16:57:00,81.3,58.5,29.79,SSE,157,0.0,0.0,46,-99.99,,,0.00,wxRedirect v1.1,2013-09-25 21:57:00,
2013-09-25 17:02:00,86.2,60.4,29.78,South,180,0.0,0.0,46,-99.99,,,0.00,wxRedirect v1.1,2013-09-25 22:02:00,
2013-09-25 17:04:00,81.3,58.5,29.78,South,180,0.0,0.0,46,-99.99,,,0.00,wxRedirect v1.1,2013-09-25 22:04:00,
2013-09-25 17:05:00,81.5,58.6,29.78,South,180,0.0,0.0,46,-99.99,,,0.00,wxRedirect v1.1,2013-09-25 22:05:00,
2013-09-25 17:07:00,81.3,58.5,29.78,SSE,157,0.0,0.0,46,-99.99,,,0.00,wxRedirect v1.1,2013-09-25 22:07:00,
2013-09-25 17:13:00,81.3,58.5,29.78,South,180,0.0,0.0,46,-99.99,,,0.00,wxRedirect v1.1,2013-09-25 22:13:00,
2013-09-25 17:16:00,81.5,58.6,29.78,SSE,157,0.0,0.0,46,-99.99,,,0.00,wxRedirect v1.1,2013-09-25 22:16:00,
2013-09-25 17:19:00,81.3,58.5,29.78,South,180,0.0,0.0,46,-99.99,,,0.00,wxRedirect v1.1,2013-09-25 22:19:00,
2013-09-25 17:23:00,81.3,58.5,29.78,East,90,0.0,0.0,46,-99.99,,,0.00,wxRedirect v1.1,2013-09-25 22:23:00,
2013-09-25 17:24:00,81.5,58.6,29.78,SSE,157,0.0,0.0,46,-99.99,,,0.00,wxRedirect v1.1,2013-09-25 22:24:00,
2013-09-25 17:26:00,81.3,58.5,29.78,ESE,112,0.0,0.0,46,-99.99,,,0.00,wxRedirect v1.1,2013-09-25 22:26:00,
2013-09-25 17:29:00,81.3,58.5,29.78,SSE,157,0.0,0.0,46,-99.99,,,0.00,wxRedirect v1.1,2013-09-25 22:29:00,
2013-09-25 17:30:00,81.3,58.5,29.78,SSE,157,0.0,0.0,46,-99.99,,,0.00,wxRedirect v1.1,2013-09-25 22:30:00,
2013-09-25 17:33:00,81.3,58.5,29.78,SSE,157,0.0,0.0,46,-99.99,,,0.00,wxRedirect v1.1,2013-09-25 22:33:00,
2013-09-25 17:34:00,81.3,57.8,29.78,South,180,0.0,0.0,45,-99.99,,,0.00,wxRedirect v1.1,2013-09-25 22:34:00,
2013-09-25 17:35:00,81.3,58.5,29.78,SSE,157,0.0,0.0,46,-99.99,,,0.00,wxRedirect v1.1,2013-09-25 22:35:00,
2013-09-25 17:39:00,81.3,57.8,29.78,SSE,157,0.0,0.0,45,-99.99,,,0.00,wxRedirect v1.1,2013-09-25 22:39:00,
2013-09-25 17:40:00,81.3,58.5,29.78,ESE,112,0.0,0.0,46,-99.99,,,0.00,wxRedirect v1.1,2013-09-25 22:40:00,
2013-09-25 17:41:00,81.3,58.5,29.78,SSE,157,0.0,0.0,46,-99.99,,,0.00,wxRedirect v1.1,2013-09-25 22:41:00,
2013-09-25 17:45:00,81.3,58.5,29.78,ESE,112,0.0,0.0,46,-99.99,,,0.00,wxRedirect v1.1,2013-09-25 22:45:00,
2013-09-25 17:46:00,81.3,58.5,29.78,SSE,157,0.0,0.0,46,-99.99,,,0.00,wxRedirect v1.1,2013-09-25 22:46:00,
2013-09-25 17:47:00,81.3,58.5,29.77,South,180,0.0,0.0,46,-99.99,,,0.00,wxRedirect v1.1,2013-09-25 22:47:00,
2013-09-25 17:49:00,81.1,58.3,29.78,SSW,202,0.0,0.0,46,-99.99,,,0.00,wxRedirect v1.1,2013-09-25 22:49:00,
2013-09-25 17:50:00,81.1,58.3,29.78,South,180,0.0,0.0,46,-99.99,,,0.00,wxRedirect v1.1,2013-09-25 22:50:00,
2013-09-25 17:51:00,81.3,57.8,29.78,SSE,157,0.0,0.0,45,-99.99,,,0.00,wxRedirect v1.1,2013-09-25 22:51:00,
2013-09-25 17:52:00,81.1,58.3,29.78,SE,135,0.0,0.0,46,-99.99,,,0.00,wxRedirect v1.1,2013-09-25 22:52:00,
2013-09-25 17:56:00,81.3,58.5,29.77,SSE,157,0.0,0.0,46,-99.99,,,0.00,wxRedirect v1.1,2013-09-25 22:56:00,
2013-09-25 18:01:00,81.1,58.3,29.78,SSE,157,0.0,0.0,46,-99.99,,,0.00,wxRedirect v1.1,2013-09-25 23:01:00,
2013-09-25 18:07:00,81.1,58.3,29.78,SSE,157,0.0,0.0,46,-99.99,,,0.00,wxRedirect v1.1,2013-09-25 23:07:00,
2013-09-25 18:12:00,81.1,58.3,29.77,SSE,157,0.0,0.0,46,-99.99,,,0.00,wxRedirect v1.1,2013-09-25 23:12:00,
2013-09-25 18:17:00,81.0,58.7,29.78,SSE,157,0.0,0.0,47,-99.99,,,0.00,wxRedirect v1.1,2013-09-25 23:17:00,
2013-09-25 18:23:00,81.0,58.7,29.78,SSE,157,0.0,0.0,47,-99.99,,,0.00,wxRedirect v1.1,2013-09-25 23:23:00,
2013-09-25 18:28:00,80.8,58.6,29.77,South,180,0.0,0.0,47,-99.99,,,0.00,wxRedirect v1.1,2013-09-25 23:28:00,
2013-09-25 18:33:00,80.6,58.4,29.77,ESE,112,0.0,0.0,47,-99.99,,,0.00,wxRedirect v1.1,2013-09-25 23:33:00,
2013-09-25 18:39:00,80.4,58.3,29.78,SE,135,0.0,0.0,47,-99.99,,,0.00,wxRedirect v1.1,2013-09-25 23:39:00,
2013-09-25 18:44:00,80.2,58.7,29.78,SE,135,0.0,0.0,48,-99.99,,,0.00,wxRedirect v1.1,2013-09-25 23:44:00,
2013-09-25 18:49:00,80.2,58.6,29.78,SE,135,0.0,0.0,48,-99.99,,,0.00,wxRedirect v1.1,2013-09-25 23:49:00,
2013-09-25 18:55:00,79.9,58.4,29.77,SSE,157,0.0,0.0,48,-99.99,,,0.00,wxRedirect v1.1,2013-09-25 23:55:00,
2013-09-25 19:00:00,79.7,58.2,29.77,SSE,157,0.0,0.0,48,-99.99,,,0.00,wxRedirect v1.1,2013-09-26 00:00:00,
2013-09-25 19:05:00,79.5,58.7,29.77,ESE,112,0.0,0.0,49,-99.99,,,0.00,wxRedirect v1.1,2013-09-26 00:05:00,
2013-09-25 19:11:00,79.3,58.5,29.77,SSE,157,0.0,0.0,49,-99.99,,,0.00,wxRedirect v1.1,2013-09-26 00:11:00,
2013-09-25 19:16:00,79.0,58.2,29.77,SE,135,0.0,0.0,49,-99.99,,,0.00,wxRedirect v1.1,2013-09-26 00:16:00,
2013-09-25 19:21:00,78.6,57.9,29.77,SSE,157,0.0,0.0,49,-99.99,,,0.00,wxRedirect v1.1,2013-09-26 00:21:00,
2013-09-25 19:27:00,78.6,57.9,29.77,SSE,157,0.0,0.0,49,-99.99,,,0.00,wxRedirect v1.1,2013-09-26 00:27:00,
2013-09-25 19:32:00,78.6,57.9,29.77,SE,135,0.0,0.0,49,-99.99,,,0.00,wxRedirect v1.1,2013-09-26 00:32:00,
2013-09-25 19:37:00,78.3,57.5,29.77,ESE,112,0.0,0.0,49,-99.99,,,0.00,wxRedirect v1.1,2013-09-26 00:37:00,
2013-09-25 19:43:00,78.1,58.0,29.77,SE,135,0.0,0.0,50,-99.99,,,0.00,wxRedirect v1.1,2013-09-26 00:43:00,
2013-09-25 19:48:00,77.7,57.7,29.77,SE,135,0.0,0.0,50,-99.99,,,0.00,wxRedirect v1.1,2013-09-26 00:48:00,
2013-09-25 19:53:00,77.7,57.7,29.77,SE,135,0.0,0.0,50,-99.99,,,0.00,wxRedirect v1.1,2013-09-26 00:53:00,
2013-09-25 19:59:00,77.4,57.3,29.77,SE,135,0.0,0.0,50,-99.99,,,0.00,wxRedirect v1.1,2013-09-26 00:59:00,
2013-09-25 20:04:00,77.2,57.2,29.78,SSE,157,0.0,0.0,50,-99.99,,,0.00,wxRedirect v1.1,2013-09-26 01:04:00,
2013-09-25 20:09:00,77.0,57.0,29.78,SSE,157,0.0,0.0,50,-99.99,,,0.00,wxRedirect v1.1,2013-09-26 01:09:00,
2013-09-25 20:15:00,76.8,56.9,29.78,SSE,157,0.0,0.0,50,-99.99,,,0.00,wxRedirect v1.1,2013-09-26 01:15:00,
2013-09-25 20:20:00,76.8,56.9,29.77,SE,135,0.0,0.0,50,-99.99,,,0.00,wxRedirect v1.1,2013-09-26 01:20:00,
2013-09-25 20:25:00,76.6,56.7,29.77,South,180,0.0,0.0,50,-99.99,,,0.00,wxRedirect v1.1,2013-09-26 01:25:00,
2013-09-25 20:31:00,76.3,56.9,29.77,SSE,157,0.0,0.0,51,-99.99,,,0.00,wxRedirect v1.1,2013-09-26 01:31:00,
2013-09-25 20:36:00,76.3,56.4,29.77,SSE,157,0.0,0.0,50,-99.99,,,0.00,wxRedirect v1.1,2013-09-26 01:36:00,
2013-09-25 20:41:00,75.9,56.0,29.77,SSE,157,0.0,0.0,50,-99.99,,,0.00,wxRedirect v1.1,2013-09-26 01:41:00,
2013-09-25 20:47:00,75.9,56.0,29.77,SSE,157,0.0,0.0,50,-99.99,,,0.00,wxRedirect v1.1,2013-09-26 01:47:00,
2013-09-25 20:52:00,75.7,55.9,29.77,SE,135,0.0,0.0,50,-99.99,,,0.00,wxRedirect v1.1,2013-09-26 01:52:00,
2013-09-25 20:57:00,75.6,55.7,29.76,ESE,112,0.0,0.0,50,-99.99,,,0.00,wxRedirect v1.1,2013-09-26 01:57:00,
2013-09-25 21:03:00,75.4,56.1,29.76,SE,135,0.0,0.0,51,-99.99,,,0.00,wxRedirect v1.1,2013-09-26 02:03:00,
2013-09-25 21:08:00,75.2,55.9,29.77,SSE,157,0.0,0.0,51,-99.99,,,0.00,wxRedirect v1.1,2013-09-26 02:08:00,
2013-09-25 21:13:00,75.0,55.7,29.77,SSE,157,0.0,0.0,51,-99.99,,,0.00,wxRedirect v1.1,2013-09-26 02:13:00,
2013-09-25 21:19:00,74.8,56.0,29.77,SSE,157,0.0,0.0,52,-99.99,,,0.00,wxRedirect v1.1,2013-09-26 02:19:00,
2013-09-25 21:25:00,74.8,56.6,29.78,SE,135,0.0,0.0,53,-99.99,,,0.00,wxRedirect v1.1,2013-09-26 02:25:00,
2013-09-25 21:30:00,74.5,56.7,29.77,SSE,157,0.0,0.0,54,-99.99,,,0.00,wxRedirect v1.1,2013-09-26 02:30:00,
2013-09-25 21:35:00,74.3,56.5,29.78,SSE,157,0.0,0.0,54,-99.99,,,0.00,wxRedirect v1.1,2013-09-26 02:35:00,
2013-09-25 21:41:00,74.1,56.3,29.78,SSE,157,0.0,0.0,54,-99.99,,,0.00,wxRedirect v1.1,2013-09-26 02:41:00,
2013-09-25 21:46:00,73.9,56.7,29.78,ESE,112,0.0,0.0,55,-99.99,,,0.00,wxRedirect v1.1,2013-09-26 02:46:00,
2013-09-25 21:51:00,73.8,56.5,29.78,ESE,112,0.0,0.0,55,-99.99,,,0.00,wxRedirect v1.1,2013-09-26 02:51:00,
2013-09-25 21:57:00,73.6,56.8,29.78,SSE,157,0.0,0.0,56,-99.99,,,0.00,wxRedirect v1.1,2013-09-26 02:57:00,
2013-09-25 22:02:00,73.2,56.5,29.78,SSE,157,0.0,0.0,56,-99.99,,,0.00,wxRedirect v1.1,2013-09-26 03:02:00,
2013-09-25 22:07:00,73.2,56.5,29.78,SSE,157,0.0,0.0,56,-99.99,,,0.00,wxRedirect v1.1,2013-09-26 03:07:00,
2013-09-25 22:13:00,73.0,56.8,29.78,SSE,157,0.0,0.0,57,-99.99,,,0.00,wxRedirect v1.1,2013-09-26 03:13:00,
2013-09-25 22:18:00,72.9,56.6,29.78,SSE,157,0.0,0.0,57,-99.99,,,0.00,wxRedirect v1.1,2013-09-26 03:18:00,
2013-09-25 22:23:00,72.7,56.5,29.77,SE,135,0.0,0.0,57,-99.99,,,0.00,wxRedirect v1.1,2013-09-26 03:23:00,
2013-09-25 22:29:00,72.3,56.7,29.78,SSE,157,0.0,0.0,58,-99.99,,,0.00,wxRedirect v1.1,2013-09-26 03:29:00,
2013-09-25 22:34:00,72.3,57.2,29.78,South,180,0.0,0.0,59,-99.99,,,0.00,wxRedirect v1.1,2013-09-26 03:34:00,
2013-09-25 22:39:00,72.1,57.0,29.78,SSE,157,0.0,0.0,59,-99.99,,,0.00,wxRedirect v1.1,2013-09-26 03:39:00,
2013-09-25 22:45:00,72.0,57.3,29.78,SSE,157,0.0,0.0,60,-99.99,,,0.00,wxRedirect v1.1,2013-09-26 03:45:00,
2013-09-25 22:47:00,71.4,57.3,29.78,SE,135,0.0,0.0,61,-99.99,,,0.00,wxRedirect v1.1,2013-09-26 03:47:00,
2013-09-25 22:48:00,71.4,57.3,29.78,SE,135,0.0,0.0,61,-99.99,,,0.00,wxRedirect v1.1,2013-09-26 03:48:00,
2013-09-25 22:49:00,71.4,57.3,29.78,SE,135,0.0,0.0,61,-99.99,,,0.00,wxRedirect v1.1,2013-09-26 03:49:00,
2013-09-25 22:50:00,71.8,57.2,29.78,SSE,157,0.0,0.0,60,-99.99,,,0.00,wxRedirect v1.1,2013-09-26 03:50:00,
2013-09-25 22:51:00,71.2,57.1,29.78,SE,135,0.0,0.0,61,-99.99,,,0.00,wxRedirect v1.1,2013-09-26 03:51:00,
2013-09-25 22:52:00,71.2,57.1,29.78,SSE,157,0.0,0.0,61,-99.99,,,0.00,wxRedirect v1.1,2013-09-26 03:52:00,
2013-09-25 22:53:00,71.2,57.1,29.78,SSE,157,0.0,0.0,61,-99.99,,,0.00,wxRedirect v1.1,2013-09-26 03:53:00,
2013-09-25 22:54:00,71.2,57.1,29.77,ESE,112,0.0,0.0,61,-99.99,,,0.00,wxRedirect v1.1,2013-09-26 03:54:00,
2013-09-25 22:55:00,71.4,57.3,29.78,SSE,157,0.0,0.0,61,-99.99,,,0.00,wxRedirect v1.1,2013-09-26 03:55:00,
2013-09-25 22:56:00,71.2,57.1,29.78,SE,135,0.0,0.0,61,-99.99,,,0.00,wxRedirect v1.1,2013-09-26 03:56:00,
2013-09-25 22:57:00,71.2,57.5,29.78,SSE,157,0.0,0.0,62,-99.99,,,0.00,wxRedirect v1.1,2013-09-26 03:57:00,
2013-09-25 22:58:00,71.2,57.5,29.78,South,180,0.0,0.0,62,-99.99,,,0.00,wxRedirect v1.1,2013-09-26 03:58:00,
2013-09-25 22:59:00,71.2,57.5,29.78,SE,135,0.0,0.0,62,-99.99,,,0.00,wxRedirect v1.1,2013-09-26 03:59:00,
2013-09-25 23:00:00,71.2,57.5,29.78,SE,135,0.0,0.0,62,-99.99,,,0.00,wxRedirect v1.1,2013-09-26 04:00:00,
2013-09-25 23:01:00,71.1,57.4,29.78,SSE,157,0.0,0.0,62,-99.99,,,0.00,wxRedirect v1.1,2013-09-26 04:01:00,
2013-09-25 23:02:00,71.1,57.4,29.78,SSE,157,0.0,0.0,62,-99.99,,,0.00,wxRedirect v1.1,2013-09-26 04:02:00,
2013-09-25 23:03:00,71.1,57.4,29.78,SE,135,0.0,0.0,62,-99.99,,,0.00,wxRedirect v1.1,2013-09-26 04:03:00,
2013-09-25 23:04:00,70.9,57.2,29.77,ESE,112,0.0,0.0,62,-99.99,,,0.00,wxRedirect v1.1,2013-09-26 04:04:00,
2013-09-25 23:05:00,70.9,57.2,29.77,ESE,112,0.0,0.0,62,-99.99,,,0.00,wxRedirect v1.1,2013-09-26 04:05:00,
2013-09-25 23:06:00,70.9,57.2,29.77,SSE,157,0.0,0.0,62,-99.99,,,0.00,wxRedirect v1.1,2013-09-26 04:06:00,
2013-09-25 23:17:00,70.7,57.1,29.77,SE,135,0.0,0.0,62,-99.99,,,0.00,wxRedirect v1.1,2013-09-26 04:17:00,
2013-09-25 23:18:00,70.9,57.2,29.77,SE,135,0.0,0.0,62,-99.99,,,0.00,wxRedirect v1.1,2013-09-26 04:18:00,
2013-09-25 23:19:00,70.7,57.1,29.77,SE,135,0.0,0.0,62,-99.99,,,0.00,wxRedirect v1.1,2013-09-26 04:19:00,
2013-09-25 23:20:00,70.7,57.1,29.77,SE,135,0.0,0.0,62,-99.99,,,0.00,wxRedirect v1.1,2013-09-26 04:20:00,
2013-09-25 23:21:00,70.7,57.1,29.77,SSE,157,0.0,0.0,62,-99.99,,,0.00,wxRedirect v1.1,2013-09-26 04:21:00,
2013-09-25 23:22:00,70.7,57.1,29.77,SE,135,0.0,0.0,62,-99.99,,,0.00,wxRedirect v1.1,2013-09-26 04:22:00,
2013-09-25 23:23:00,70.7,57.1,29.77,SSE,157,0.0,0.0,62,-99.99,,,0.00,wxRedirect v1.1,2013-09-26 04:23:00,
2013-09-25 23:24:00,70.7,57.1,29.77,SSE,157,0.0,0.0,62,-99.99,,,0.00,wxRedirect v1.1,2013-09-26 04:24:00,
2013-09-25 23:25:00,70.7,57.1,29.77,ESE,112,0.0,0.0,62,-99.99,,,0.00,wxRedirect v1.1,2013-09-26 04:25:00,
2013-09-25 23:26:00,70.7,57.1,29.77,SSE,157,0.0,0.0,62,-99.99,,,0.00,wxRedirect v1.1,2013-09-26 04:26:00,
2013-09-25 23:27:00,70.5,56.9,29.77,SSE,157,0.0,0.0,62,-99.99,,,0.00,wxRedirect v1.1,2013-09-26 04:27:00,
2013-09-25 23:28:00,70.7,57.1,29.77,South,180,0.0,0.0,62,-99.99,,,0.00,wxRedirect v1.1,2013-09-26 04:28:00,
2013-09-25 23:29:00,70.5,56.9,29.77,SSE,157,0.0,0.0,62,-99.99,,,0.00,wxRedirect v1.1,2013-09-26 04:29:00,
2013-09-25 23:30:00,70.5,56.9,29.77,SE,135,0.0,0.0,62,-99.99,,,0.00,wxRedirect v1.1,2013-09-26 04:30:00,
2013-09-25 23:31:00,70.5,56.9,29.77,SSE,157,0.0,0.0,62,-99.99,,,0.00,wxRedirect v1.1,2013-09-26 04:31:00,
2013-09-25 23:32:00,70.5,56.9,29.77,SSE,157,0.0,0.0,62,-99.99,,,0.00,wxRedirect v1.1,2013-09-26 04:32:00,
2013-09-25 23:33:00,70.5,56.9,29.77,SSE,157,0.0,0.0,62,-99.99,,,0.00,wxRedirect v1.1,2013-09-26 04:33:00,
2013-09-25 23:34:00,70.5,56.9,29.77,SSE,157,0.0,0.0,62,-99.99,,,0.00,wxRedirect v1.1,2013-09-26 04:34:00,
2013-09-25 23:35:00,70.5,56.9,29.77,SSE,157,0.0,0.0,62,-99.99,,,0.00,wxRedirect v1.1,2013-09-26 04:35:00,
2013-09-25 23:36:00,70.5,56.9,29.77,SSE,157,0.0,0.0,62,-99.99,,,0.00,wxRedirect v1.1,2013-09-26 04:36:00,
2013-09-25 23:37:00,70.5,56.9,29.77,SSE,157,0.0,0.0,62,-99.99,,,0.00,wxRedirect v1.1,2013-09-26 04:37:00,
2013-09-25 23:38:00,70.5,56.9,29.77,ENE,67,0.0,0.0,62,-99.99,,,0.00,wxRedirect v1.1,2013-09-26 04:38:00,
2013-09-25 23:39:00,70.5,56.9,29.77,SSE,157,0.0,0.0,62,-99.99,,,0.00,wxRedirect v1.1,2013-09-26 04:39:00,
2013-09-25 23:40:00,70.5,56.9,29.77,SE,135,0.0,0.0,62,-99.99,,,0.00,wxRedirect v1.1,2013-09-26 04:40:00,
2013-09-25 23:41:00,70.5,56.9,29.77,SSE,157,0.0,0.0,62,-99.99,,,0.00,wxRedirect v1.1,2013-09-26 04:41:00,
2013-09-25 23:43:00,70.5,56.9,29.77,SSE,157,0.0,0.0,62,-99.99,,,0.00,wxRedirect v1.1,2013-09-26 04:43:00,
2013-09-25 23:44:00,70.5,56.9,29.77,SSE,157,0.0,0.0,62,-99.99,,,0.00,wxRedirect v1.1,2013-09-26 04:44:00,
2013-09-25 23:45:00,70.5,56.9,29.77,SSE,157,0.0,0.0,62,-99.99,,,0.00,wxRedirect v1.1,2013-09-26 04:45:00,
2013-09-25 23:46:00,70.5,56.9,29.77,ESE,112,0.0,0.0,62,-99.99,,,0.00,wxRedirect v1.1,2013-09-26 04:46:00,
2013-09-25 23:47:00,70.3,56.9,29.77,SSE,157,0.0,0.0,62,-99.99,,,0.00,wxRedirect v1.1,2013-09-26 04:47:00,
2013-09-25 23:49:00,70.5,56.9,29.77,SE,135,0.0,0.0,62,-99.99,,,0.00,wxRedirect v1.1,2013-09-26 04:49:00,
2013-09-25 23:50:00,70.3,56.7,29.77,SSE,157,0.0,0.0,62,-99.99,,,0.00,wxRedirect v1.1,2013-09-26 04:50:00,
2013-09-25 23:53:00,70.3,56.7,29.77,SE,135,0.0,0.0,62,-99.99,,,0.00,wxRedirect v1.1,2013-09-26 04:53:00,
2013-09-25 23:54:00,70.3,56.7,29.77,South,180,0.0,0.0,62,-99.99,,,0.00,wxRedirect v1.1,2013-09-26 04:54:00,
2013-09-25 23:55:00,70.5,56.9,29.77,SSE,157,0.0,0.0,62,-99.99,,,0.00,wxRedirect v1.1,2013-09-26 04:55:00,
2013-09-25 23:56:00,70.3,56.7,29.77,South,180,0.0,0.0,62,-99.99,,,0.00,wxRedirect v1.1,2013-09-26 04:56:00,
2013-09-25 23:59:00,70.3,56.7,29.77,SE,135,0.0,0.0,62,-99.99,,,0.00,wxRedirect v1.1,2013-09-26 04:59:00,